Mekoryuk, Alaska
Current Conditions -  °F | °C
As of 4:16 AM on Friday 24 Oct 2014 (Local Time) from PAMY Reporting Station
Clear Clear  
Wind Chill: 23°   Ceiling: Unl
Heat Index: 30°   Visibility: 10mi
Dew Point: 23°   Wind: 8mph
Humidity: 75%   Direction: 230°SW
Pressure: 29.89"   Gusts: NA
Location:  60.39°N, 166.19°W
Report Text: PAMY 241216Z AUTO 23007KT 10SM CLR M01/M05 A2989 RMK AO1
Loading
Personal Weather Stations






























Interactive Weather Map
Tropical Storm Tracking
New forecast layout! Learn more

10-Day Weather Forecast

Advertisements
Track Severe Weather on mobile